Time;durP1;ratioP1;P1;durP2;ratioP2;P2;SDS_P1;SDS_P2;PMS_P1;PMS_P2;Temp;Humidity;BMP_temperature;BMP_pressure;BME280_temperature;BME280_humidity;BME280_pressure;Samples;Min_cycle;Max_cycle;Signal;HPM_P1;HPM_P2
2021/01/05 00:02:01;;;;;;;118.73;47.40;;;;;;;;;;640276;216;919166;-69
2021/01/05 00:04:33;;;;;;;131.07;51.33;;;;;;;;;;639010;217;918306;-69
2021/01/05 00:06:53;;;;;;;135.47;47.43;;;;;;;;;;640819;218;918736;-69
2021/01/05 00:09:19;;;;;;;132.13;49.33;;;;;;;;;;634507;216;919971;-68
2021/01/05 00:11:50;;;;;;;126.23;46.50;;;;;;;;;;635107;218;918869;-69
2021/01/05 00:14:16;;;;;;;143.77;47.87;;;;;;;;;;638360;218;919133;-68
2021/01/05 00:16:42;;;;;;;114.70;46.97;;;;;;;;;;637690;219;920148;-69
2021/01/05 00:19:08;;;;;;;85.40;35.80;;;;;;;;;;635237;216;917926;-68
2021/01/05 00:21:34;;;;;;;126.70;47.70;;;;;;;;;;640928;218;918301;-68
2021/01/05 00:24:00;;;;;;;95.90;45.00;;;;;;;;;;635917;218;918884;-68
2021/01/05 00:26:26;;;;;;;111.03;48.50;;;;;;;;;;636464;217;921335;-68
2021/01/05 00:28:51;;;;;;;119.32;44.45;;;;;;;;;;638757;217;918180;-68
2021/01/05 00:31:17;;;;;;;102.40;35.53;;;;;;;;;;642797;217;918396;-68
2021/01/05 00:33:43;;;;;;;111.63;41.90;;;;;;;;;;640086;217;918656;-68
2021/01/05 00:36:09;;;;;;;128.43;45.63;;;;;;;;;;637630;216;918752;-68
2021/01/05 00:38:35;;;;;;;79.33;32.00;;;;;;;;;;643662;217;917630;-69
2021/01/05 00:41:01;;;;;;;120.83;39.90;;;;;;;;;;639728;217;918482;-67
2021/01/05 00:43:26;;;;;;;101.73;39.17;;;;;;;;;;640542;216;912510;-68
2021/01/05 00:45:52;;;;;;;114.23;42.47;;;;;;;;;;642213;217;915910;-68
2021/01/05 00:48:18;;;;;;;105.57;36.77;;;;;;;;;;639220;216;918653;-69
2021/01/05 00:50:44;;;;;;;107.90;32.07;;;;;;;;;;636900;217;925070;-68
2021/01/05 00:53:10;;;;;;;117.30;44.67;;;;;;;;;;642833;217;918763;-67
2021/01/05 00:55:36;;;;;;;104.97;40.00;;;;;;;;;;639932;218;918577;-69
2021/01/05 00:58:02;;;;;;;117.13;39.40;;;;;;;;;;636475;219;930396;-68
2021/01/05 01:00:31;;;;;;;111.10;37.63;;;;;;;;;;633199;215;1355474;-68
2021/01/05 01:02:55;;;;;;;89.03;33.13;;;;;;;;;;642723;217;919195;-68
2021/01/05 01:05:21;;;;;;;62.03;29.52;;;;;;;;;;634347;217;918315;-69
2021/01/05 01:07:47;;;;;;;94.83;33.17;;;;;;;;;;635796;217;918536;-68
2021/01/05 01:10:12;;;;;;;95.23;35.70;;;;;;;;;;641522;219;918788;-68
2021/01/05 01:12:38;;;;;;;89.03;35.57;;;;;;;;;;634323;218;920239;-68
2021/01/05 01:15:05;;;;;;;95.60;36.40;;;;;;;;;;637284;219;918608;-69
2021/01/05 01:17:31;;;;;;;90.27;36.23;;;;;;;;;;639622;216;918709;-70
2021/01/05 01:19:57;;;;;;;105.93;37.00;;;;;;;;;;633819;218;918311;-68
2021/01/05 01:22:23;;;;;;;85.03;35.85;;;;;;;;;;630547;217;918375;-68
2021/01/05 01:24:48;;;;;;;65.30;25.63;;;;;;;;;;636403;218;919054;-68
2021/01/05 01:27:14;;;;;;;83.20;34.20;;;;;;;;;;641202;216;882977;-68
2021/01/05 01:29:40;;;;;;;95.27;35.93;;;;;;;;;;637941;218;918893;-68
2021/01/05 01:32:06;;;;;;;86.80;33.47;;;;;;;;;;634387;217;919116;-68
2021/01/05 01:34:32;;;;;;;85.50;35.00;;;;;;;;;;640563;216;1020855;-68
2021/01/05 01:36:58;;;;;;;69.27;29.57;;;;;;;;;;634009;218;918872;-68
2021/01/05 01:39:23;;;;;;;84.13;31.35;;;;;;;;;;634393;218;920076;-68
2021/01/05 01:41:49;;;;;;;93.20;31.33;;;;;;;;;;638601;216;918199;-67
2021/01/05 01:44:16;;;;;;;75.47;30.43;;;;;;;;;;636905;216;919380;-68
2021/01/05 01:46:42;;;;;;;54.67;21.85;;;;;;;;;;639294;216;920226;-68
2021/01/05 01:49:08;;;;;;;72.20;30.37;;;;;;;;;;640206;217;918995;-67
2021/01/05 01:51:34;;;;;;;81.10;30.10;;;;;;;;;;645165;216;918819;-70
2021/01/05 01:54:03;;;;;;;71.77;24.40;;;;;;;;;;638145;216;919866;-68
2021/01/05 01:56:32;;;;;;;54.85;22.40;;;;;;;;;;638994;216;915171;-68
2021/01/05 01:58:58;;;;;;;63.37;28.37;;;;;;;;;;635040;213;939012;-67
2021/01/05 02:01:38;;;;;;;75.47;31.77;;;;;;;;;;631019;219;919541;-68
2021/01/05 02:04:20;;;;;;;73.17;28.60;;;;;;;;;;630494;218;919106;-67
2021/01/05 02:06:48;;;;;;;63.63;26.37;;;;;;;;;;629635;221;919098;-68
2021/01/05 02:09:29;;;;;;;26.73;10.65;;;;;;;;;;621778;221;998909;-68
2021/01/05 02:11:58;;;;;;;66.93;27.43;;;;;;;;;;636670;218;919128;-67
2021/01/05 02:14:26;;;;;;;65.37;25.35;;;;;;;;;;633318;220;917554;-68
2021/01/05 02:17:10;;;;;;;48.97;19.07;;;;;;;;;;637057;220;919307;-67
2021/01/05 02:19:37;;;;;;;53.67;23.37;;;;;;;;;;635670;219;907359;-68
2021/01/05 02:22:03;;;;;;;70.60;26.50;;;;;;;;;;626137;221;918488;-68
2021/01/05 02:24:31;;;;;;;45.47;22.47;;;;;;;;;;628928;220;919381;-68
2021/01/05 02:26:59;;;;;;;68.53;26.98;;;;;;;;;;634116;220;919117;-68
2021/01/05 02:29:25;;;;;;;58.60;23.17;;;;;;;;;;621093;219;2454621;-72
2021/01/05 02:31:53;;;;;;;77.60;27.47;;;;;;;;;;630171;220;920117;-70
2021/01/05 02:34:25;;;;;;;51.67;19.70;;;;;;;;;;626539;220;919290;-68
2021/01/05 02:37:06;;;;;;;77.13;28.83;;;;;;;;;;637270;220;917954;-67
2021/01/05 02:39:38;;;;;;;47.60;19.90;;;;;;;;;;634310;220;919029;-69
2021/01/05 02:42:05;;;;;;;60.00;23.40;;;;;;;;;;630239;220;932282;-69
2021/01/05 02:44:31;;;;;;;38.47;18.70;;;;;;;;;;627683;220;918991;-69
2021/01/05 02:47:02;;;;;;;38.90;16.40;;;;;;;;;;630184;219;919977;-68
2021/01/05 02:49:38;;;;;;;65.30;22.57;;;;;;;;;;633090;220;919008;-70
2021/01/05 02:52:10;;;;;;;52.40;19.50;;;;;;;;;;634096;219;919009;-68
2021/01/05 02:54:54;;;;;;;46.40;19.67;;;;;;;;;;630450;219;937896;-70
2021/01/05 02:57:25;;;;;;;51.03;22.10;;;;;;;;;;634192;218;918719;-69
2021/01/05 02:59:58;;;;;;;58.23;24.27;;;;;;;;;;629999;221;942086;-66
2021/01/05 03:02:38;;;;;;;45.17;18.83;;;;;;;;;;628778;218;918588;-68
2021/01/05 03:05:05;;;;;;;54.43;24.33;;;;;;;;;;629635;220;918935;-67
2021/01/05 03:07:30;;;;;;;65.90;25.90;;;;;;;;;;632966;221;919189;-68
2021/01/05 03:10:02;;;;;;;70.67;28.57;;;;;;;;;;631736;221;918917;-68
2021/01/05 03:12:32;;;;;;;64.30;28.77;;;;;;;;;;627007;220;918783;-68
2021/01/05 03:15:07;;;;;;;57.00;27.23;;;;;;;;;;630251;221;918969;-68
2021/01/05 03:17:33;;;;;;;69.33;29.10;;;;;;;;;;631707;221;918998;-68
2021/01/05 03:20:00;;;;;;;84.90;31.10;;;;;;;;;;632064;220;918533;-69
2021/01/05 03:22:26;;;;;;;60.40;26.57;;;;;;;;;;632179;220;636270;-70
2021/01/05 03:24:52;;;;;;;45.93;23.43;;;;;;;;;;635709;218;646226;-69
2021/01/05 03:27:17;;;;;;;51.33;23.80;;;;;;;;;;636935;220;625623;-69
2021/01/05 03:29:43;;;;;;;68.27;25.60;;;;;;;;;;632600;219;914008;-68
2021/01/05 03:32:09;;;;;;;47.40;20.83;;;;;;;;;;627879;219;914926;-68
2021/01/05 03:34:35;;;;;;;58.63;22.60;;;;;;;;;;632959;220;915394;-68
2021/01/05 03:37:01;;;;;;;18.80;11.60;;;;;;;;;;628632;220;924951;-68
2021/01/05 03:39:27;;;;;;;46.90;19.20;;;;;;;;;;631313;220;918581;-68
2021/01/05 03:41:52;;;;;;;28.70;15.82;;;;;;;;;;633655;220;919352;-69
2021/01/05 03:44:18;;;;;;;53.43;23.43;;;;;;;;;;632570;220;886627;-68
2021/01/05 03:46:44;;;;;;;49.37;17.57;;;;;;;;;;631985;220;920581;-68
2021/01/05 03:49:10;;;;;;;44.40;18.87;;;;;;;;;;632948;220;918499;-69
2021/01/05 03:51:36;;;;;;;66.12;25.58;;;;;;;;;;630906;220;920679;-69
2021/01/05 03:54:02;;;;;;;57.77;21.43;;;;;;;;;;629243;220;916178;-69
2021/01/05 03:56:28;;;;;;;73.28;24.95;;;;;;;;;;629901;220;915792;-68
2021/01/05 03:58:53;;;;;;;89.40;32.20;;;;;;;;;;624167;222;969979;-69
2021/01/05 04:01:19;;;;;;;97.40;43.30;;;;;;;;;;626964;221;918569;-68
2021/01/05 04:03:45;;;;;;;128.43;53.13;;;;;;;;;;627703;221;919272;-69
2021/01/05 04:06:11;;;;;;;34.37;18.70;;;;;;;;;;635270;221;918908;-69
2021/01/05 04:08:37;;;;;;;32.30;17.57;;;;;;;;;;629688;221;1022391;-69
2021/01/05 04:11:03;;;;;;;45.22;22.70;;;;;;;;;;630064;221;930814;-69
2021/01/05 04:13:28;;;;;;;53.07;23.10;;;;;;;;;;632096;220;917796;-70
2021/01/05 04:15:54;;;;;;;45.63;21.60;;;;;;;;;;630001;220;918242;-69
2021/01/05 04:18:20;;;;;;;70.20;33.65;;;;;;;;;;627138;221;815239;-70
2021/01/05 04:20:46;;;;;;;49.13;20.53;;;;;;;;;;633494;223;623058;-70
2021/01/05 04:23:17;;;;;;;49.65;20.98;;;;;;;;;;630111;220;918978;-70
2021/01/05 04:25:43;;;;;;;57.05;22.70;;;;;;;;;;626960;218;921895;-69
2021/01/05 04:28:09;;;;;;;46.50;20.70;;;;;;;;;;629309;220;917643;-69
2021/01/05 04:30:35;;;;;;;62.73;28.30;;;;;;;;;;632251;221;918254;-67
2021/01/05 04:33:01;;;;;;;42.50;18.40;;;;;;;;;;630303;220;1199395;-69
2021/01/05 04:35:27;;;;;;;61.57;22.30;;;;;;;;;;631564;219;915209;-69
2021/01/05 04:37:53;;;;;;;48.27;20.70;;;;;;;;;;635768;220;919527;-69
2021/01/05 04:40:20;;;;;;;48.77;22.00;;;;;;;;;;622493;219;1333640;-68
2021/01/05 04:42:46;;;;;;;40.85;18.90;;;;;;;;;;629129;221;918224;-68
2021/01/05 04:45:13;;;;;;;50.10;21.87;;;;;;;;;;628725;220;628497;-68
2021/01/05 04:47:44;;;;;;;51.40;23.07;;;;;;;;;;632175;220;624969;-68
2021/01/05 04:50:11;;;;;;;55.40;21.87;;;;;;;;;;628687;220;917884;-69
2021/01/05 04:52:41;;;;;;;41.80;18.47;;;;;;;;;;630524;220;919106;-68
2021/01/05 04:55:07;;;;;;;19.37;9.87;;;;;;;;;;627930;220;919302;-68
2021/01/05 04:57:33;;;;;;;38.17;15.20;;;;;;;;;;632753;220;920857;-69
2021/01/05 04:59:59;;;;;;;38.37;16.17;;;;;;;;;;629843;219;886801;-68
2021/01/05 05:02:35;;;;;;;42.15;18.80;;;;;;;;;;630553;220;918642;-68
2021/01/05 05:05:02;;;;;;;23.80;11.97;;;;;;;;;;629381;220;919200;-67
2021/01/05 05:07:46;;;;;;;42.20;20.83;;;;;;;;;;630661;221;918854;-68
2021/01/05 05:10:11;;;;;;;40.80;17.17;;;;;;;;;;627267;221;918686;-67
2021/01/05 05:12:37;;;;;;;35.73;15.43;;;;;;;;;;623589;221;919418;-68
2021/01/05 05:15:04;;;;;;;25.17;13.83;;;;;;;;;;625339;221;919162;-67
2021/01/05 05:17:39;;;;;;;25.97;12.07;;;;;;;;;;628677;216;969882;-69
2021/01/05 05:20:02;;;;;;;33.70;10.67;;;;;;;;;;629233;222;918321;-68
2021/01/05 05:22:27;;;;;;;23.90;12.90;;;;;;;;;;624965;219;918703;-69
2021/01/05 05:24:54;;;;;;;26.73;13.20;;;;;;;;;;625405;221;918877;-68
2021/01/05 05:27:20;;;;;;;20.40;10.43;;;;;;;;;;634501;220;918111;-68
2021/01/05 05:29:46;;;;;;;19.50;8.47;;;;;;;;;;630433;221;919133;-69
2021/01/05 05:32:21;;;;;;;20.33;10.67;;;;;;;;;;629800;219;918938;-68
2021/01/05 05:34:48;;;;;;;28.87;13.20;;;;;;;;;;631977;221;918655;-69
2021/01/05 05:37:19;;;;;;;19.42;10.85;;;;;;;;;;632697;220;918267;-69
2021/01/05 05:39:50;;;;;;;11.83;8.60;;;;;;;;;;630112;220;918162;-69
2021/01/05 05:42:22;;;;;;;38.47;13.90;;;;;;;;;;630432;221;919153;-69
2021/01/05 05:44:49;;;;;;;22.83;11.97;;;;;;;;;;630874;220;919768;-69
2021/01/05 05:47:15;;;;;;;32.07;15.10;;;;;;;;;;634734;219;907401;-68
2021/01/05 05:49:56;;;;;;;25.47;12.13;;;;;;;;;;634601;220;629093;-68
2021/01/05 05:52:22;;;;;;;25.10;13.63;;;;;;;;;;639320;218;624270;-69
2021/01/05 05:54:48;;;;;;;30.13;14.97;;;;;;;;;;633170;220;637048;-69
2021/01/05 05:57:18;;;;;;;21.10;10.20;;;;;;;;;;632959;217;918786;-69
2021/01/05 05:59:44;;;;;;;13.87;10.30;;;;;;;;;;630425;220;918701;-69
2021/01/05 06:02:11;;;;;;;16.63;9.50;;;;;;;;;;628335;220;918876;-68
2021/01/05 06:04:37;;;;;;;21.60;12.90;;;;;;;;;;630444;220;918213;-69
2021/01/05 06:07:03;;;;;;;28.60;13.05;;;;;;;;;;633474;221;919746;-69
2021/01/05 06:09:28;;;;;;;21.60;11.07;;;;;;;;;;624093;219;1043836;-71
2021/01/05 06:11:54;;;;;;;19.87;11.50;;;;;;;;;;626859;220;927652;-69
2021/01/05 06:14:20;;;;;;;16.57;10.60;;;;;;;;;;628022;221;1023757;-69
2021/01/05 06:16:46;;;;;;;32.80;14.90;;;;;;;;;;625895;219;919659;-69
2021/01/05 06:19:12;;;;;;;62.05;30.80;;;;;;;;;;625341;220;917245;-68
2021/01/05 06:21:38;;;;;;;20.40;11.87;;;;;;;;;;630656;220;915957;-69
2021/01/05 06:24:04;;;;;;;19.03;12.87;;;;;;;;;;625848;221;913203;-70
2021/01/05 06:26:30;;;;;;;17.93;10.37;;;;;;;;;;627626;221;915700;-68
2021/01/05 06:28:56;;;;;;;23.17;15.33;;;;;;;;;;628379;219;1063413;-69
2021/01/05 06:31:21;;;;;;;23.70;11.57;;;;;;;;;;626508;220;918398;-68
2021/01/05 06:33:47;;;;;;;14.00;10.97;;;;;;;;;;625144;219;928170;-69
2021/01/05 06:36:13;;;;;;;13.40;8.93;;;;;;;;;;625213;221;917481;-67
2021/01/05 06:38:39;;;;;;;22.17;11.33;;;;;;;;;;630601;221;915572;-69
2021/01/05 06:41:05;;;;;;;15.03;9.30;;;;;;;;;;627247;220;918541;-69
2021/01/05 06:43:31;;;;;;;13.10;8.83;;;;;;;;;;626151;221;1020354;-69
2021/01/05 06:45:56;;;;;;;15.73;10.20;;;;;;;;;;628884;220;919105;-69
2021/01/05 06:48:22;;;;;;;25.03;11.87;;;;;;;;;;626368;222;929501;-69
2021/01/05 06:50:48;;;;;;;16.90;10.52;;;;;;;;;;619443;219;2970547;-69
2021/01/05 06:53:14;;;;;;;15.43;9.60;;;;;;;;;;635619;221;920838;-68
2021/01/05 06:55:40;;;;;;;16.20;8.80;;;;;;;;;;627392;221;917438;-70
2021/01/05 06:58:06;;;;;;;17.53;10.47;;;;;;;;;;631148;219;912811;-69
2021/01/05 07:00:32;;;;;;;18.60;10.17;;;;;;;;;;633378;220;915533;-70
2021/01/05 07:02:57;;;;;;;12.95;8.98;;;;;;;;;;631949;220;919147;-68
2021/01/05 07:05:23;;;;;;;21.07;12.40;;;;;;;;;;628751;219;1018411;-68
2021/01/05 07:07:49;;;;;;;19.57;10.87;;;;;;;;;;631517;220;915797;-68
2021/01/05 07:10:15;;;;;;;14.47;10.27;;;;;;;;;;632803;219;912196;-68
2021/01/05 07:12:41;;;;;;;23.07;11.90;;;;;;;;;;627991;220;918034;-69
2021/01/05 07:15:07;;;;;;;14.50;9.95;;;;;;;;;;628209;220;913358;-69
2021/01/05 07:17:33;;;;;;;19.40;10.50;;;;;;;;;;634440;220;919099;-69
2021/01/05 07:19:59;;;;;;;24.70;12.17;;;;;;;;;;631608;220;918547;-69
2021/01/05 07:22:25;;;;;;;20.17;10.18;;;;;;;;;;626878;219;1018036;-69
2021/01/05 07:24:51;;;;;;;22.63;11.40;;;;;;;;;;634223;220;921275;-69
2021/01/05 07:27:17;;;;;;;23.08;15.18;;;;;;;;;;629438;220;919282;-69
2021/01/05 07:29:42;;;;;;;33.73;18.53;;;;;;;;;;630963;220;916185;-69
2021/01/05 07:32:09;;;;;;;35.47;21.67;;;;;;;;;;630514;220;923545;-67
2021/01/05 07:34:37;;;;;;;38.37;23.30;;;;;;;;;;626891;223;915216;-69
2021/01/05 07:37:00;;;;;;;34.47;18.43;;;;;;;;;;625148;220;959220;-69
2021/01/05 07:39:27;;;;;;;33.20;16.70;;;;;;;;;;626914;221;914835;-69
2021/01/05 07:41:53;;;;;;;37.83;22.10;;;;;;;;;;629608;223;914558;-70
2021/01/05 07:44:19;;;;;;;28.30;17.70;;;;;;;;;;629438;221;918297;-69
2021/01/05 07:46:45;;;;;;;40.87;23.53;;;;;;;;;;626864;221;919905;-69
2021/01/05 07:49:11;;;;;;;23.77;13.47;;;;;;;;;;634831;221;915793;-69
2021/01/05 07:51:37;;;;;;;45.27;25.23;;;;;;;;;;629044;221;919724;-69
2021/01/05 07:54:03;;;;;;;40.70;23.23;;;;;;;;;;631167;221;915800;-68
2021/01/05 07:56:29;;;;;;;43.50;26.67;;;;;;;;;;634550;219;631556;-69
2021/01/05 07:58:55;;;;;;;26.13;16.13;;;;;;;;;;630882;221;918620;-69
2021/01/05 08:01:21;;;;;;;39.13;21.90;;;;;;;;;;631376;221;908942;-69
2021/01/05 08:03:47;;;;;;;38.63;22.60;;;;;;;;;;628128;221;944801;-69
2021/01/05 08:06:13;;;;;;;31.30;20.47;;;;;;;;;;631547;220;913394;-70
2021/01/05 08:08:39;;;;;;;31.53;21.50;;;;;;;;;;628506;220;917767;-69
2021/01/05 08:11:05;;;;;;;37.67;24.23;;;;;;;;;;631529;219;919318;-68
2021/01/05 08:13:31;;;;;;;35.33;25.00;;;;;;;;;;634455;220;914206;-69
2021/01/05 08:15:57;;;;;;;20.53;13.70;;;;;;;;;;635256;219;916364;-69
2021/01/05 08:18:23;;;;;;;32.45;21.02;;;;;;;;;;629407;220;948362;-69
2021/01/05 08:20:49;;;;;;;59.17;31.03;;;;;;;;;;634848;220;916447;-68
2021/01/05 08:23:18;;;;;;;31.07;17.17;;;;;;;;;;627461;219;931643;-69
2021/01/05 08:25:40;;;;;;;24.70;15.10;;;;;;;;;;621919;225;918979;-69
2021/01/05 08:28:07;;;;;;;25.23;14.30;;;;;;;;;;621861;225;1013359;-68
2021/01/05 08:30:33;;;;;;;21.20;13.70;;;;;;;;;;619113;225;919066;-69
2021/01/05 08:32:59;;;;;;;22.67;13.30;;;;;;;;;;616749;225;918983;-68
2021/01/05 08:35:25;;;;;;;25.93;14.40;;;;;;;;;;620296;225;918898;-69
2021/01/05 08:37:51;;;;;;;23.70;14.53;;;;;;;;;;625285;225;918232;-68
2021/01/05 08:40:17;;;;;;;24.13;14.17;;;;;;;;;;617668;225;1292553;-68
2021/01/05 08:42:43;;;;;;;16.40;12.20;;;;;;;;;;619503;225;921672;-70
2021/01/05 08:45:09;;;;;;;29.00;18.60;;;;;;;;;;621406;225;919048;-68
2021/01/05 08:47:35;;;;;;;21.30;12.23;;;;;;;;;;620303;225;917694;-69
2021/01/05 08:50:01;;;;;;;20.00;13.23;;;;;;;;;;616784;225;922667;-69
2021/01/05 08:52:27;;;;;;;24.93;13.50;;;;;;;;;;623787;225;918417;-69
2021/01/05 08:54:53;;;;;;;19.40;11.30;;;;;;;;;;615452;225;917606;-70
2021/01/05 08:57:19;;;;;;;20.23;10.45;;;;;;;;;;620548;225;919053;-69
2021/01/05 08:59:45;;;;;;;23.13;14.90;;;;;;;;;;617798;225;918191;-68
2021/01/05 09:02:11;;;;;;;22.57;14.20;;;;;;;;;;620629;225;919096;-70
2021/01/05 09:04:37;;;;;;;25.42;14.60;;;;;;;;;;615835;225;928199;-69
2021/01/05 09:07:03;;;;;;;24.43;15.40;;;;;;;;;;617640;225;965267;-68
2021/01/05 09:09:29;;;;;;;18.00;11.80;;;;;;;;;;621000;225;918560;-68
2021/01/05 09:11:55;;;;;;;22.93;12.90;;;;;;;;;;619561;225;919668;-68
2021/01/05 09:14:21;;;;;;;19.50;14.13;;;;;;;;;;615434;225;935075;-73
2021/01/05 09:16:47;;;;;;;18.70;13.70;;;;;;;;;;620977;225;918364;-69
2021/01/05 09:19:13;;;;;;;28.43;18.97;;;;;;;;;;617975;225;918674;-68
2021/01/05 09:21:38;;;;;;;67.70;30.83;;;;;;;;;;617931;223;919039;-68
2021/01/05 09:24:05;;;;;;;39.67;22.30;;;;;;;;;;615815;225;918800;-68
2021/01/05 09:26:33;;;;;;;51.10;25.80;;;;;;;;;;618888;225;918867;-68
2021/01/05 09:28:58;;;;;;;78.77;35.20;;;;;;;;;;617988;225;918727;-68
2021/01/05 09:31:24;;;;;;;115.87;43.07;;;;;;;;;;613615;225;918657;-67
2021/01/05 09:33:50;;;;;;;55.90;28.87;;;;;;;;;;625198;225;918471;-68
2021/01/05 09:36:16;;;;;;;102.57;46.75;;;;;;;;;;616955;225;933517;-68
2021/01/05 09:38:42;;;;;;;101.30;43.93;;;;;;;;;;619504;225;918325;-68
2021/01/05 09:41:08;;;;;;;114.60;49.43;;;;;;;;;;622679;225;916439;-69
2021/01/05 09:43:34;;;;;;;54.53;25.93;;;;;;;;;;622199;225;914451;-69
2021/01/05 09:46:00;;;;;;;36.60;22.90;;;;;;;;;;617446;225;1275053;-68
2021/01/05 09:48:26;;;;;;;34.37;18.03;;;;;;;;;;622441;225;919196;-69
2021/01/05 09:50:52;;;;;;;63.20;29.30;;;;;;;;;;619450;225;918761;-68
2021/01/05 09:53:17;;;;;;;25.02;15.52;;;;;;;;;;618367;225;918829;-67
2021/01/05 09:55:43;;;;;;;29.00;17.97;;;;;;;;;;618351;225;919137;-68
2021/01/05 09:58:09;;;;;;;27.10;14.40;;;;;;;;;;620940;225;919500;-68
2021/01/05 10:00:35;;;;;;;23.53;14.57;;;;;;;;;;618806;225;919659;-68
2021/01/05 10:03:01;;;;;;;27.25;17.05;;;;;;;;;;617474;225;918180;-68
2021/01/05 10:05:27;;;;;;;21.43;14.80;;;;;;;;;;625225;225;816109;-69
2021/01/05 10:07:53;;;;;;;23.60;14.77;;;;;;;;;;622096;225;918311;-69
2021/01/05 10:10:18;;;;;;;22.40;13.63;;;;;;;;;;625652;225;635620;-70
2021/01/05 10:12:44;;;;;;;13.60;9.40;;;;;;;;;;623364;225;660583;-70
2021/01/05 10:15:10;;;;;;;13.13;8.90;;;;;;;;;;619881;225;623777;-69
2021/01/05 10:17:36;;;;;;;23.03;12.70;;;;;;;;;;621347;225;622096;-70
2021/01/05 10:20:03;;;;;;;15.63;10.60;;;;;;;;;;624679;225;919982;-69
2021/01/05 10:22:30;;;;;;;19.33;10.43;;;;;;;;;;622432;225;921839;-70
2021/01/05 10:24:55;;;;;;;15.17;11.33;;;;;;;;;;622692;225;919119;-70
2021/01/05 10:27:22;;;;;;;16.10;10.40;;;;;;;;;;617788;225;1179819;-69
2021/01/05 10:29:47;;;;;;;16.73;10.87;;;;;;;;;;624117;225;916217;-69
2021/01/05 10:32:13;;;;;;;19.80;11.50;;;;;;;;;;623342;223;919053;-69
2021/01/05 10:34:39;;;;;;;17.83;10.13;;;;;;;;;;618342;224;917857;-69
2021/01/05 10:37:05;;;;;;;16.20;9.97;;;;;;;;;;620756;223;917935;-69
2021/01/05 10:39:31;;;;;;;15.95;9.70;;;;;;;;;;617732;225;921602;-69
2021/01/05 10:41:57;;;;;;;19.63;12.27;;;;;;;;;;620576;224;918489;-69
2021/01/05 10:44:22;;;;;;;15.47;10.20;;;;;;;;;;620598;225;943096;-69
2021/01/05 10:46:48;;;;;;;16.17;11.70;;;;;;;;;;617308;225;919451;-69
2021/01/05 10:49:14;;;;;;;19.73;11.53;;;;;;;;;;616702;225;919999;-69
2021/01/05 10:51:43;;;;;;;29.07;18.73;;;;;;;;;;618983;225;921570;-69
2021/01/05 10:54:09;;;;;;;30.60;17.83;;;;;;;;;;622165;225;918459;-69
2021/01/05 10:56:35;;;;;;;19.70;11.23;;;;;;;;;;620152;225;918878;-69
2021/01/05 10:59:01;;;;;;;13.00;8.80;;;;;;;;;;617730;225;925283;-69
2021/01/05 11:01:27;;;;;;;15.60;10.70;;;;;;;;;;622946;225;918465;-69
2021/01/05 11:03:52;;;;;;;17.70;9.02;;;;;;;;;;617521;225;918804;-70
2021/01/05 11:06:18;;;;;;;14.13;9.30;;;;;;;;;;617988;225;944595;-70
2021/01/05 11:08:44;;;;;;;16.80;10.47;;;;;;;;;;624769;225;918923;-70
2021/01/05 11:11:15;;;;;;;16.47;9.77;;;;;;;;;;619185;225;919358;-70
2021/01/05 11:13:40;;;;;;;15.50;9.47;;;;;;;;;;618071;225;918964;-70
2021/01/05 11:16:06;;;;;;;15.00;9.67;;;;;;;;;;617879;225;913404;-69
2021/01/05 11:18:32;;;;;;;19.57;10.67;;;;;;;;;;621826;225;918684;-70
2021/01/05 11:20:58;;;;;;;19.80;9.73;;;;;;;;;;617515;225;919048;-71
2021/01/05 11:23:24;;;;;;;14.80;9.87;;;;;;;;;;620859;225;918881;-70
2021/01/05 11:25:50;;;;;;;13.83;9.67;;;;;;;;;;622761;225;918729;-69
2021/01/05 11:28:16;;;;;;;13.50;9.23;;;;;;;;;;620141;225;920439;-70
2021/01/05 11:30:41;;;;;;;13.23;9.13;;;;;;;;;;615369;225;918485;-70
2021/01/05 11:33:07;;;;;;;16.13;9.00;;;;;;;;;;622223;225;919031;-71
2021/01/05 11:35:33;;;;;;;20.10;11.33;;;;;;;;;;618245;225;918424;-70
2021/01/05 11:37:59;;;;;;;25.93;13.10;;;;;;;;;;619877;225;918384;-71
2021/01/05 11:40:25;;;;;;;14.73;9.70;;;;;;;;;;617459;225;918563;-70
2021/01/05 11:42:51;;;;;;;16.60;10.90;;;;;;;;;;624171;224;918018;-70
2021/01/05 11:45:17;;;;;;;19.07;10.90;;;;;;;;;;620153;224;918377;-69
2021/01/05 11:47:43;;;;;;;15.75;9.77;;;;;;;;;;619776;225;918976;-69
2021/01/05 11:50:10;;;;;;;14.10;10.30;;;;;;;;;;624526;225;919712;-70
2021/01/05 11:52:35;;;;;;;14.87;9.77;;;;;;;;;;617506;224;920559;-70
2021/01/05 11:55:01;;;;;;;15.77;9.80;;;;;;;;;;620560;225;996339;-70
2021/01/05 11:57:27;;;;;;;17.87;10.17;;;;;;;;;;621849;225;1221502;-69
2021/01/05 11:59:53;;;;;;;16.30;10.20;;;;;;;;;;621162;225;916136;-70
2021/01/05 12:02:19;;;;;;;12.07;8.50;;;;;;;;;;618957;225;921762;-69
2021/01/05 12:04:45;;;;;;;14.77;8.03;;;;;;;;;;620844;225;914297;-68
2021/01/05 12:07:12;;;;;;;11.63;8.80;;;;;;;;;;620329;225;913955;-70
2021/01/05 12:09:38;;;;;;;18.23;10.23;;;;;;;;;;616136;225;918729;-70
2021/01/05 12:12:06;;;;;;;10.83;7.27;;;;;;;;;;616586;225;918776;-70
2021/01/05 12:14:30;;;;;;;10.70;8.33;;;;;;;;;;619248;225;917040;-70
2021/01/05 12:16:57;;;;;;;13.00;9.30;;;;;;;;;;617832;225;939938;-70
2021/01/05 12:19:23;;;;;;;13.00;9.03;;;;;;;;;;621147;225;932324;-69
2021/01/05 12:21:49;;;;;;;12.20;8.55;;;;;;;;;;622018;225;919358;-70
2021/01/05 12:24:15;;;;;;;15.70;9.90;;;;;;;;;;621265;225;922206;-69
2021/01/05 12:26:41;;;;;;;12.20;8.50;;;;;;;;;;619611;225;1005299;-69
2021/01/05 12:29:09;;;;;;;10.83;8.23;;;;;;;;;;616993;225;919170;-70
2021/01/05 12:31:37;;;;;;;13.70;9.83;;;;;;;;;;626433;223;919185;-70
2021/01/05 12:34:03;;;;;;;15.00;8.97;;;;;;;;;;617984;225;918274;-70
2021/01/05 12:36:30;;;;;;;16.87;10.00;;;;;;;;;;618303;225;918456;-70
2021/01/05 12:38:56;;;;;;;14.33;10.07;;;;;;;;;;619665;225;916971;-70
2021/01/05 12:41:23;;;;;;;15.20;9.60;;;;;;;;;;617867;225;944391;-70
2021/01/05 12:43:49;;;;;;;15.93;11.50;;;;;;;;;;617259;225;919954;-71
2021/01/05 12:46:21;;;;;;;21.27;12.37;;;;;;;;;;622228;225;918361;-69
2021/01/05 12:48:47;;;;;;;20.00;11.80;;;;;;;;;;617899;226;935223;-70
2021/01/05 12:51:14;;;;;;;16.90;11.47;;;;;;;;;;618587;225;918670;-70
2021/01/05 12:53:39;;;;;;;15.03;10.67;;;;;;;;;;617348;225;918874;-69
2021/01/05 12:56:06;;;;;;;16.50;12.30;;;;;;;;;;626702;223;915181;-70
2021/01/05 12:58:32;;;;;;;16.90;11.60;;;;;;;;;;620626;224;919026;-70
2021/01/05 13:00:57;;;;;;;18.20;12.67;;;;;;;;;;619851;225;918527;-70
2021/01/05 13:03:24;;;;;;;20.55;12.60;;;;;;;;;;619150;220;933775;-68
2021/01/05 13:05:50;;;;;;;17.60;10.20;;;;;;;;;;623624;223;919357;-69
2021/01/05 13:08:15;;;;;;;21.10;12.70;;;;;;;;;;621470;225;925302;-70
2021/01/05 13:10:42;;;;;;;18.13;12.67;;;;;;;;;;620114;225;919112;-69
2021/01/05 13:13:08;;;;;;;18.40;12.03;;;;;;;;;;624692;225;918146;-70
2021/01/05 13:15:34;;;;;;;20.60;12.50;;;;;;;;;;618360;225;918895;-70
2021/01/05 13:18:02;;;;;;;19.03;12.10;;;;;;;;;;622417;225;918418;-70
2021/01/05 13:20:27;;;;;;;16.77;11.77;;;;;;;;;;624332;224;915801;-70
2021/01/05 13:22:54;;;;;;;17.90;11.50;;;;;;;;;;619051;225;921810;-70
2021/01/05 13:25:20;;;;;;;21.37;13.40;;;;;;;;;;619940;225;1067331;-69
2021/01/05 13:27:47;;;;;;;16.90;11.63;;;;;;;;;;620101;225;918994;-69
2021/01/05 13:30:17;;;;;;;19.65;13.30;;;;;;;;;;620093;225;918953;-71
2021/01/05 13:32:40;;;;;;;21.60;12.23;;;;;;;;;;621046;225;920304;-71
2021/01/05 13:35:06;;;;;;;16.80;11.80;;;;;;;;;;616078;225;1020341;-70
2021/01/05 13:37:34;;;;;;;18.10;11.83;;;;;;;;;;622532;225;919347;-71
2021/01/05 13:39:58;;;;;;;19.03;11.63;;;;;;;;;;617170;225;931726;-70
2021/01/05 13:42:24;;;;;;;24.67;15.40;;;;;;;;;;620062;225;919253;-71
2021/01/05 13:44:50;;;;;;;20.67;13.00;;;;;;;;;;623816;225;931344;-70
2021/01/05 13:47:16;;;;;;;19.97;13.43;;;;;;;;;;619068;225;918717;-71
2021/01/05 13:49:42;;;;;;;21.57;14.20;;;;;;;;;;621023;225;918864;-70
2021/01/05 13:52:09;;;;;;;27.90;15.95;;;;;;;;;;619709;225;922946;-70
2021/01/05 13:54:34;;;;;;;43.83;21.57;;;;;;;;;;620008;225;1021325;-71
2021/01/05 13:56:59;;;;;;;56.57;27.97;;;;;;;;;;617459;225;918892;-70
2021/01/05 13:59:25;;;;;;;43.08;19.92;;;;;;;;;;620029;222;918917;-70
2021/01/05 14:01:53;;;;;;;25.33;15.10;;;;;;;;;;618824;225;917853;-70